sensor_id;sensor_type;location;lat;lon;timestamp;P1;durP1;ratioP1;P2;durP2;ratioP2
50681;SDS011;36779;52.168;20.878;2023-02-28T01:02:59;13.40;;;6.50;;
50681;SDS011;36779;52.168;20.878;2023-02-28T01:05:50;13.20;;;6.30;;
50681;SDS011;36779;52.168;20.878;2023-02-28T01:08:41;14.20;;;6.70;;
50681;SDS011;36779;52.168;20.878;2023-02-28T01:11:32;12.40;;;6.30;;
50681;SDS011;36779;52.168;20.878;2023-02-28T01:14:24;12.30;;;5.40;;
50681;SDS011;36779;52.168;20.878;2023-02-28T01:17:13;12.70;;;5.60;;
50681;SDS011;36779;52.168;20.878;2023-02-28T01:20:05;13.70;;;5.60;;
50681;SDS011;36779;52.168;20.878;2023-02-28T01:22:57;16.50;;;5.50;;
50681;SDS011;36779;52.168;20.878;2023-02-28T01:25:47;7.80;;;4.00;;
50681;SDS011;36779;52.168;20.878;2023-02-28T01:28:37;13.90;;;5.10;;
50681;SDS011;36779;52.168;20.878;2023-02-28T01:31:27;15.60;;;5.50;;
50681;SDS011;36779;52.168;20.878;2023-02-28T01:34:19;14.40;;;5.80;;
50681;SDS011;36779;52.168;20.878;2023-02-28T01:37:11;15.30;;;6.10;;
50681;SDS011;36779;52.168;20.878;2023-02-28T01:40:01;14.50;;;5.50;;
50681;SDS011;36779;52.168;20.878;2023-02-28T01:42:52;8.60;;;4.40;;
50681;SDS011;36779;52.168;20.878;2023-02-28T01:45:41;8.60;;;4.60;;
50681;SDS011;36779;52.168;20.878;2023-02-28T01:48:36;11.10;;;5.20;;
50681;SDS011;36779;52.168;20.878;2023-02-28T01:51:29;15.20;;;6.10;;
50681;SDS011;36779;52.168;20.878;2023-02-28T01:54:24;18.10;;;7.10;;
50681;SDS011;36779;52.168;20.878;2023-02-28T01:57:19;20.80;;;6.90;;
50681;SDS011;36779;52.168;20.878;2023-02-28T02:00:14;21.20;;;7.70;;
50681;SDS011;36779;52.168;20.878;2023-02-28T02:03:13;20.80;;;8.00;;
50681;SDS011;36779;52.168;20.878;2023-02-28T02:06:06;17.20;;;7.40;;
50681;SDS011;36779;52.168;20.878;2023-02-28T02:08:55;18.90;;;7.70;;
50681;SDS011;36779;52.168;20.878;2023-02-28T02:11:46;22.90;;;7.90;;
50681;SDS011;36779;52.168;20.878;2023-02-28T02:14:42;23.00;;;8.30;;
50681;SDS011;36779;52.168;20.878;2023-02-28T02:18:09;19.00;;;7.40;;
50681;SDS011;36779;52.168;20.878;2023-02-28T02:21:39;17.80;;;7.30;;
50681;SDS011;36779;52.168;20.878;2023-02-28T02:24:51;15.00;;;7.30;;
50681;SDS011;36779;52.168;20.878;2023-02-28T02:35:18;19.70;;;6.80;;
50681;SDS011;36779;52.168;20.878;2023-02-28T02:38:18;18.80;;;6.30;;
50681;SDS011;36779;52.168;20.878;2023-02-28T02:41:18;16.30;;;6.40;;
50681;SDS011;36779;52.168;20.878;2023-02-28T02:47:11;14.90;;;6.40;;
50681;SDS011;36779;52.168;20.878;2023-02-28T02:50:08;13.00;;;6.10;;
50681;SDS011;36779;52.168;20.878;2023-02-28T02:55:55;17.90;;;8.00;;
50681;SDS011;36779;52.168;20.878;2023-02-28T02:58:48;20.10;;;7.20;;
50681;SDS011;36779;52.168;20.878;2023-02-28T03:01:40;18.50;;;7.80;;
50681;SDS011;36779;52.168;20.878;2023-02-28T03:04:32;22.40;;;8.50;;
50681;SDS011;36779;52.168;20.878;2023-02-28T03:07:27;20.60;;;8.90;;
50681;SDS011;36779;52.168;20.878;2023-02-28T03:10:32;24.20;;;9.30;;
50681;SDS011;36779;52.168;20.878;2023-02-28T03:13:32;18.70;;;8.10;;
50681;SDS011;36779;52.168;20.878;2023-02-28T03:16:40;23.00;;;7.60;;
50681;SDS011;36779;52.168;20.878;2023-02-28T03:20:09;24.00;;;8.10;;
50681;SDS011;36779;52.168;20.878;2023-02-28T03:23:16;22.70;;;8.50;;
50681;SDS011;36779;52.168;20.878;2023-02-28T03:26:13;22.10;;;8.80;;
50681;SDS011;36779;52.168;20.878;2023-02-28T03:29:13;20.20;;;7.90;;
50681;SDS011;36779;52.168;20.878;2023-02-28T03:32:12;20.90;;;8.30;;
50681;SDS011;36779;52.168;20.878;2023-02-28T03:38:05;28.00;;;8.60;;
50681;SDS011;36779;52.168;20.878;2023-02-28T03:41:02;21.20;;;7.80;;
50681;SDS011;36779;52.168;20.878;2023-02-28T03:43:58;23.50;;;8.50;;
50681;SDS011;36779;52.168;20.878;2023-02-28T03:46:56;22.10;;;7.70;;
50681;SDS011;36779;52.168;20.878;2023-02-28T03:49:52;19.50;;;7.10;;
50681;SDS011;36779;52.168;20.878;2023-02-28T03:52:49;21.00;;;8.20;;
50681;SDS011;36779;52.168;20.878;2023-02-28T03:55:50;16.70;;;7.60;;
50681;SDS011;36779;52.168;20.878;2023-02-28T03:58:46;20.30;;;8.00;;
50681;SDS011;36779;52.168;20.878;2023-02-28T04:01:44;20.40;;;7.70;;
50681;SDS011;36779;52.168;20.878;2023-02-28T04:04:37;25.90;;;9.00;;
50681;SDS011;36779;52.168;20.878;2023-02-28T04:07:37;28.80;;;9.40;;
50681;SDS011;36779;52.168;20.878;2023-02-28T04:10:26;24.50;;;9.40;;
50681;SDS011;36779;52.168;20.878;2023-02-28T04:13:16;29.00;;;10.30;;
50681;SDS011;36779;52.168;20.878;2023-02-28T04:16:07;28.30;;;9.90;;
50681;SDS011;36779;52.168;20.878;2023-02-28T04:19:10;24.30;;;8.90;;
50681;SDS011;36779;52.168;20.878;2023-02-28T04:22:00;25.20;;;10.40;;
50681;SDS011;36779;52.168;20.878;2023-02-28T04:27:38;15.80;;;7.80;;
50681;SDS011;36779;52.168;20.878;2023-02-28T04:30:27;29.10;;;8.60;;
50681;SDS011;36779;52.168;20.878;2023-02-28T04:33:17;20.00;;;8.50;;
50681;SDS011;36779;52.168;20.878;2023-02-28T04:36:07;22.00;;;8.10;;
50681;SDS011;36779;52.168;20.878;2023-02-28T04:38:57;20.10;;;8.80;;
50681;SDS011;36779;52.168;20.878;2023-02-28T04:41:47;25.50;;;9.10;;
50681;SDS011;36779;52.168;20.878;2023-02-28T04:44:37;25.10;;;8.90;;
50681;SDS011;36779;52.168;20.878;2023-02-28T04:47:30;26.90;;;9.30;;
50681;SDS011;36779;52.168;20.878;2023-02-28T04:50:31;19.00;;;7.80;;
50681;SDS011;36779;52.168;20.878;2023-02-28T04:53:21;27.70;;;8.20;;
50681;SDS011;36779;52.168;20.878;2023-02-28T04:56:31;25.50;;;8.30;;
50681;SDS011;36779;52.168;20.878;2023-02-28T04:59:11;29.40;;;9.20;;
50681;SDS011;36779;52.168;20.878;2023-02-28T05:02:01;30.40;;;10.60;;
50681;SDS011;36779;52.168;20.878;2023-02-28T05:04:57;28.00;;;10.90;;
50681;SDS011;36779;52.168;20.878;2023-02-28T05:07:50;25.10;;;10.20;;
50681;SDS011;36779;52.168;20.878;2023-02-28T05:10:43;27.00;;;10.10;;
50681;SDS011;36779;52.168;20.878;2023-02-28T05:13:33;34.50;;;11.10;;
50681;SDS011;36779;52.168;20.878;2023-02-28T05:16:27;34.50;;;11.60;;
50681;SDS011;36779;52.168;20.878;2023-02-28T05:19:39;35.10;;;12.10;;
50681;SDS011;36779;52.168;20.878;2023-02-28T05:22:29;30.40;;;11.30;;
50681;SDS011;36779;52.168;20.878;2023-02-28T05:25:41;30.30;;;10.50;;
50681;SDS011;36779;52.168;20.878;2023-02-28T05:28:31;26.70;;;10.40;;
50681;SDS011;36779;52.168;20.878;2023-02-28T05:31:32;27.00;;;10.40;;
50681;SDS011;36779;52.168;20.878;2023-02-28T05:34:29;33.70;;;11.00;;
50681;SDS011;36779;52.168;20.878;2023-02-28T05:37:19;31.20;;;10.20;;
50681;SDS011;36779;52.168;20.878;2023-02-28T05:40:11;43.40;;;11.00;;
50681;SDS011;36779;52.168;20.878;2023-02-28T05:43:02;32.80;;;10.70;;
50681;SDS011;36779;52.168;20.878;2023-02-28T05:45:54;29.80;;;10.40;;
50681;SDS011;36779;52.168;20.878;2023-02-28T05:48:48;26.80;;;9.70;;
50681;SDS011;36779;52.168;20.878;2023-02-28T05:51:38;26.70;;;11.30;;
50681;SDS011;36779;52.168;20.878;2023-02-28T05:54:28;32.40;;;12.00;;
50681;SDS011;36779;52.168;20.878;2023-02-28T05:57:19;31.50;;;13.00;;
50681;SDS011;36779;52.168;20.878;2023-02-28T06:00:15;37.90;;;14.00;;
50681;SDS011;36779;52.168;20.878;2023-02-28T06:03:06;41.30;;;13.30;;
50681;SDS011;36779;52.168;20.878;2023-02-28T06:09:10;41.00;;;13.40;;
50681;SDS011;36779;52.168;20.878;2023-02-28T06:12:03;28.20;;;11.80;;
50681;SDS011;36779;52.168;20.878;2023-02-28T06:14:51;39.70;;;13.90;;
50681;SDS011;36779;52.168;20.878;2023-02-28T06:17:40;37.30;;;13.40;;
50681;SDS011;36779;52.168;20.878;2023-02-28T06:20:32;42.00;;;13.00;;
50681;SDS011;36779;52.168;20.878;2023-02-28T06:23:29;38.90;;;13.00;;
50681;SDS011;36779;52.168;20.878;2023-02-28T06:26:22;34.50;;;12.60;;
50681;SDS011;36779;52.168;20.878;2023-02-28T06:29:13;34.40;;;11.90;;
50681;SDS011;36779;52.168;20.878;2023-02-28T06:32:04;31.30;;;12.20;;
50681;SDS011;36779;52.168;20.878;2023-02-28T06:34:54;28.20;;;10.00;;
50681;SDS011;36779;52.168;20.878;2023-02-28T06:37:49;34.60;;;11.40;;
50681;SDS011;36779;52.168;20.878;2023-02-28T06:40:41;33.60;;;12.00;;
50681;SDS011;36779;52.168;20.878;2023-02-28T06:43:34;29.30;;;10.50;;
50681;SDS011;36779;52.168;20.878;2023-02-28T06:46:27;35.70;;;11.70;;
50681;SDS011;36779;52.168;20.878;2023-02-28T06:49:22;41.20;;;12.30;;
50681;SDS011;36779;52.168;20.878;2023-02-28T06:52:11;41.00;;;13.60;;
50681;SDS011;36779;52.168;20.878;2023-02-28T06:55:01;30.10;;;11.60;;
50681;SDS011;36779;52.168;20.878;2023-02-28T06:57:53;29.30;;;10.50;;
50681;SDS011;36779;52.168;20.878;2023-02-28T07:00:50;27.00;;;9.70;;
50681;SDS011;36779;52.168;20.878;2023-02-28T07:03:42;20.40;;;8.70;;
50681;SDS011;36779;52.168;20.878;2023-02-28T07:06:34;27.50;;;9.40;;
50681;SDS011;36779;52.168;20.878;2023-02-28T07:09:23;17.70;;;7.50;;
50681;SDS011;36779;52.168;20.878;2023-02-28T07:12:17;16.60;;;6.90;;
50681;SDS011;36779;52.168;20.878;2023-02-28T07:15:10;15.60;;;6.80;;
50681;SDS011;36779;52.168;20.878;2023-02-28T07:18:00;12.60;;;5.70;;
50681;SDS011;36779;52.168;20.878;2023-02-28T07:20:50;17.90;;;7.20;;
50681;SDS011;36779;52.168;20.878;2023-02-28T07:23:39;13.90;;;5.40;;
50681;SDS011;36779;52.168;20.878;2023-02-28T07:26:29;23.90;;;7.60;;
50681;SDS011;36779;52.168;20.878;2023-02-28T07:29:21;14.40;;;6.00;;
50681;SDS011;36779;52.168;20.878;2023-02-28T07:32:10;19.20;;;7.40;;
50681;SDS011;36779;52.168;20.878;2023-02-28T07:35:08;16.90;;;7.50;;
50681;SDS011;36779;52.168;20.878;2023-02-28T07:38:00;22.00;;;8.60;;
50681;SDS011;36779;52.168;20.878;2023-02-28T07:40:52;31.10;;;10.90;;
50681;SDS011;36779;52.168;20.878;2023-02-28T07:43:41;22.20;;;9.60;;
50681;SDS011;36779;52.168;20.878;2023-02-28T07:46:35;29.80;;;12.40;;
50681;SDS011;36779;52.168;20.878;2023-02-28T07:49:32;22.80;;;9.90;;
50681;SDS011;36779;52.168;20.878;2023-02-28T07:52:24;13.30;;;6.30;;
50681;SDS011;36779;52.168;20.878;2023-02-28T07:55:14;14.30;;;7.60;;
50681;SDS011;36779;52.168;20.878;2023-02-28T07:58:04;15.40;;;7.80;;
50681;SDS011;36779;52.168;20.878;2023-02-28T08:00:54;10.90;;;6.10;;
50681;SDS011;36779;52.168;20.878;2023-02-28T08:03:46;12.30;;;6.20;;
50681;SDS011;36779;52.168;20.878;2023-02-28T08:06:30;10.00;;;5.40;;
50681;SDS011;36779;52.168;20.878;2023-02-28T08:09:23;8.20;;;6.60;;
50681;SDS011;36779;52.168;20.878;2023-02-28T08:12:12;14.40;;;9.20;;
50681;SDS011;36779;52.168;20.878;2023-02-28T08:15:05;9.60;;;6.70;;
50681;SDS011;36779;52.168;20.878;2023-02-28T08:17:56;8.00;;;6.60;;
50681;SDS011;36779;52.168;20.878;2023-02-28T08:20:45;10.60;;;7.50;;
50681;SDS011;36779;52.168;20.878;2023-02-28T08:23:36;10.40;;;7.50;;
50681;SDS011;36779;52.168;20.878;2023-02-28T08:26:26;11.40;;;6.70;;
50681;SDS011;36779;52.168;20.878;2023-02-28T08:29:15;13.20;;;6.60;;
50681;SDS011;36779;52.168;20.878;2023-02-28T08:32:04;11.30;;;6.40;;
50681;SDS011;36779;52.168;20.878;2023-02-28T08:35:14;43.70;;;21.20;;
50681;SDS011;36779;52.168;20.878;2023-02-28T08:38:05;12.20;;;6.90;;
50681;SDS011;36779;52.168;20.878;2023-02-28T08:40:57;13.80;;;7.20;;
50681;SDS011;36779;52.168;20.878;2023-02-28T08:43:38;12.80;;;7.20;;
50681;SDS011;36779;52.168;20.878;2023-02-28T08:46:29;13.20;;;6.40;;
50681;SDS011;36779;52.168;20.878;2023-02-28T08:49:21;10.70;;;5.90;;
50681;SDS011;36779;52.168;20.878;2023-02-28T08:52:10;12.60;;;6.80;;
50681;SDS011;36779;52.168;20.878;2023-02-28T08:54:59;14.30;;;6.00;;
50681;SDS011;36779;52.168;20.878;2023-02-28T08:57:44;10.30;;;4.90;;
50681;SDS011;36779;52.168;20.878;2023-02-28T09:00:34;15.30;;;6.40;;
50681;SDS011;36779;52.168;20.878;2023-02-28T09:03:26;10.10;;;5.50;;
50681;SDS011;36779;52.168;20.878;2023-02-28T09:06:16;7.60;;;3.70;;
50681;SDS011;36779;52.168;20.878;2023-02-28T09:09:07;9.10;;;4.80;;
50681;SDS011;36779;52.168;20.878;2023-02-28T09:11:57;7.90;;;4.30;;
50681;SDS011;36779;52.168;20.878;2023-02-28T09:14:48;10.00;;;4.60;;
50681;SDS011;36779;52.168;20.878;2023-02-28T09:17:37;19.10;;;8.00;;
50681;SDS011;36779;52.168;20.878;2023-02-28T09:20:27;12.00;;;5.50;;
50681;SDS011;36779;52.168;20.878;2023-02-28T09:23:16;10.60;;;5.10;;
50681;SDS011;36779;52.168;20.878;2023-02-28T09:26:12;8.90;;;4.40;;
50681;SDS011;36779;52.168;20.878;2023-02-28T09:29:04;9.30;;;5.10;;
50681;SDS011;36779;52.168;20.878;2023-02-28T09:31:54;8.50;;;5.00;;
50681;SDS011;36779;52.168;20.878;2023-02-28T09:34:46;7.40;;;5.20;;
50681;SDS011;36779;52.168;20.878;2023-02-28T09:37:35;11.10;;;6.00;;
50681;SDS011;36779;52.168;20.878;2023-02-28T09:40:24;9.60;;;6.10;;
50681;SDS011;36779;52.168;20.878;2023-02-28T09:43:15;12.90;;;6.70;;
50681;SDS011;36779;52.168;20.878;2023-02-28T09:46:08;8.90;;;7.20;;
50681;SDS011;36779;52.168;20.878;2023-02-28T09:49:04;9.20;;;6.40;;
50681;SDS011;36779;52.168;20.878;2023-02-28T09:51:57;11.10;;;6.60;;
50681;SDS011;36779;52.168;20.878;2023-02-28T09:54:49;9.80;;;7.20;;
50681;SDS011;36779;52.168;20.878;2023-02-28T09:57:39;8.50;;;6.30;;
50681;SDS011;36779;52.168;20.878;2023-02-28T10:00:32;11.50;;;8.20;;
50681;SDS011;36779;52.168;20.878;2023-02-28T10:03:26;10.90;;;6.70;;
50681;SDS011;36779;52.168;20.878;2023-02-28T10:06:25;13.10;;;6.70;;
50681;SDS011;36779;52.168;20.878;2023-02-28T10:09:18;10.10;;;6.50;;
50681;SDS011;36779;52.168;20.878;2023-02-28T10:12:11;7.90;;;6.10;;
50681;SDS011;36779;52.168;20.878;2023-02-28T10:15:05;13.30;;;6.90;;
50681;SDS011;36779;52.168;20.878;2023-02-28T10:17:54;12.40;;;7.10;;
50681;SDS011;36779;52.168;20.878;2023-02-28T10:20:56;11.70;;;6.40;;
50681;SDS011;36779;52.168;20.878;2023-02-28T10:23:48;12.70;;;6.80;;
50681;SDS011;36779;52.168;20.878;2023-02-28T10:26:40;12.70;;;7.10;;
50681;SDS011;36779;52.168;20.878;2023-02-28T10:29:32;10.60;;;6.80;;
50681;SDS011;36779;52.168;20.878;2023-02-28T10:32:23;10.10;;;7.00;;
50681;SDS011;36779;52.168;20.878;2023-02-28T10:35:11;10.30;;;6.30;;
50681;SDS011;36779;52.168;20.878;2023-02-28T10:38:18;13.10;;;7.20;;
50681;SDS011;36779;52.168;20.878;2023-02-28T10:41:11;11.20;;;6.90;;
50681;SDS011;36779;52.168;20.878;2023-02-28T10:47:13;10.50;;;6.30;;
50681;SDS011;36779;52.168;20.878;2023-02-28T10:50:05;13.00;;;6.70;;
50681;SDS011;36779;52.168;20.878;2023-02-28T10:53:24;15.40;;;7.10;;
50681;SDS011;36779;52.168;20.878;2023-02-28T10:56:26;12.60;;;5.50;;
50681;SDS011;36779;52.168;20.878;2023-02-28T10:59:24;12.60;;;5.70;;
50681;SDS011;36779;52.168;20.878;2023-02-28T11:02:31;9.90;;;5.40;;
50681;SDS011;36779;52.168;20.878;2023-02-28T11:05:24;13.80;;;5.70;;
50681;SDS011;36779;52.168;20.878;2023-02-28T11:08:16;9.80;;;4.50;;
50681;SDS011;36779;52.168;20.878;2023-02-28T11:11:06;11.80;;;6.40;;
50681;SDS011;36779;52.168;20.878;2023-02-28T11:13:57;11.80;;;5.70;;
50681;SDS011;36779;52.168;20.878;2023-02-28T11:16:52;10.60;;;6.30;;
50681;SDS011;36779;52.168;20.878;2023-02-28T11:19:46;17.30;;;8.10;;
50681;SDS011;36779;52.168;20.878;2023-02-28T11:22:39;11.00;;;6.00;;
50681;SDS011;36779;52.168;20.878;2023-02-28T11:25:36;14.70;;;7.60;;
50681;SDS011;36779;52.168;20.878;2023-02-28T11:28:28;12.60;;;7.30;;
50681;SDS011;36779;52.168;20.878;2023-02-28T11:31:18;12.70;;;7.00;;
50681;SDS011;36779;52.168;20.878;2023-02-28T11:34:24;13.50;;;8.10;;
50681;SDS011;36779;52.168;20.878;2023-02-28T11:37:16;12.90;;;6.50;;
50681;SDS011;36779;52.168;20.878;2023-02-28T11:40:12;13.80;;;7.20;;
50681;SDS011;36779;52.168;20.878;2023-02-28T11:43:09;13.90;;;6.80;;
50681;SDS011;36779;52.168;20.878;2023-02-28T11:46:17;10.90;;;4.70;;
50681;SDS011;36779;52.168;20.878;2023-02-28T11:49:18;10.50;;;6.70;;
50681;SDS011;36779;52.168;20.878;2023-02-28T11:52:21;11.40;;;5.60;;
50681;SDS011;36779;52.168;20.878;2023-02-28T11:55:24;11.60;;;5.60;;
50681;SDS011;36779;52.168;20.878;2023-02-28T11:58:23;13.20;;;6.60;;
50681;SDS011;36779;52.168;20.878;2023-02-28T12:01:26;9.10;;;5.40;;
50681;SDS011;36779;52.168;20.878;2023-02-28T12:04:33;21.20;;;8.30;;
50681;SDS011;36779;52.168;20.878;2023-02-28T12:07:33;23.10;;;9.20;;
50681;SDS011;36779;52.168;20.878;2023-02-28T12:10:33;16.60;;;7.20;;
50681;SDS011;36779;52.168;20.878;2023-02-28T12:13:34;12.30;;;6.80;;
50681;SDS011;36779;52.168;20.878;2023-02-28T12:16:43;12.40;;;6.70;;
50681;SDS011;36779;52.168;20.878;2023-02-28T12:19:46;15.20;;;6.80;;
50681;SDS011;36779;52.168;20.878;2023-02-28T12:26:10;12.30;;;4.80;;
50681;SDS011;36779;52.168;20.878;2023-02-28T12:33:31;12.00;;;5.30;;
50681;SDS011;36779;52.168;20.878;2023-02-28T12:36:30;13.90;;;7.10;;
50681;SDS011;36779;52.168;20.878;2023-02-28T12:39:23;17.80;;;8.40;;
50681;SDS011;36779;52.168;20.878;2023-02-28T12:42:24;17.70;;;7.80;;
50681;SDS011;36779;52.168;20.878;2023-02-28T12:45:19;13.20;;;6.50;;
50681;SDS011;36779;52.168;20.878;2023-02-28T12:48:15;11.80;;;5.90;;
50681;SDS011;36779;52.168;20.878;2023-02-28T12:51:10;13.80;;;6.60;;
50681;SDS011;36779;52.168;20.878;2023-02-28T12:54:07;11.60;;;6.20;;
50681;SDS011;36779;52.168;20.878;2023-02-28T12:57:09;14.20;;;6.30;;
50681;SDS011;36779;52.168;20.878;2023-02-28T13:00:14;9.70;;;5.20;;
50681;SDS011;36779;52.168;20.878;2023-02-28T13:03:15;13.80;;;6.40;;
50681;SDS011;36779;52.168;20.878;2023-02-28T13:09:33;13.60;;;6.70;;
50681;SDS011;36779;52.168;20.878;2023-02-28T13:12:28;10.90;;;5.00;;
50681;SDS011;36779;52.168;20.878;2023-02-28T13:15:19;13.30;;;5.80;;
50681;SDS011;36779;52.168;20.878;2023-02-28T13:18:25;7.90;;;3.60;;
50681;SDS011;36779;52.168;20.878;2023-02-28T13:21:28;9.60;;;4.10;;
50681;SDS011;36779;52.168;20.878;2023-02-28T13:27:47;13.90;;;5.40;;
50681;SDS011;36779;52.168;20.878;2023-02-28T13:34:06;13.00;;;5.60;;
50681;SDS011;36779;52.168;20.878;2023-02-28T13:40:31;8.40;;;3.60;;
50681;SDS011;36779;52.168;20.878;2023-02-28T13:43:29;11.20;;;4.50;;
50681;SDS011;36779;52.168;20.878;2023-02-28T13:50:23;11.40;;;5.00;;
50681;SDS011;36779;52.168;20.878;2023-02-28T13:56:42;14.90;;;7.00;;
50681;SDS011;36779;52.168;20.878;2023-02-28T13:59:45;13.90;;;5.20;;
50681;SDS011;36779;52.168;20.878;2023-02-28T14:02:53;11.10;;;4.30;;
50681;SDS011;36779;52.168;20.878;2023-02-28T14:09:23;11.30;;;5.50;;
50681;SDS011;36779;52.168;20.878;2023-02-28T14:15:43;15.50;;;7.50;;
50681;SDS011;36779;52.168;20.878;2023-02-28T14:18:36;10.40;;;4.20;;
50681;SDS011;36779;52.168;20.878;2023-02-28T14:21:23;10.30;;;5.20;;
50681;SDS011;36779;52.168;20.878;2023-02-28T14:24:26;12.30;;;5.50;;
50681;SDS011;36779;52.168;20.878;2023-02-28T14:27:33;14.50;;;5.30;;
50681;SDS011;36779;52.168;20.878;2023-02-28T14:30:42;8.30;;;3.50;;
50681;SDS011;36779;52.168;20.878;2023-02-28T14:33:44;8.60;;;3.70;;
50681;SDS011;36779;52.168;20.878;2023-02-28T14:36:47;10.60;;;3.80;;
50681;SDS011;36779;52.168;20.878;2023-02-28T14:39:39;10.40;;;4.80;;
50681;SDS011;36779;52.168;20.878;2023-02-28T14:42:30;14.70;;;5.10;;
50681;SDS011;36779;52.168;20.878;2023-02-28T14:45:22;14.10;;;5.00;;
50681;SDS011;36779;52.168;20.878;2023-02-28T14:48:14;10.90;;;5.10;;
50681;SDS011;36779;52.168;20.878;2023-02-28T14:51:06;12.60;;;5.20;;
50681;SDS011;36779;52.168;20.878;2023-02-28T14:53:58;12.40;;;5.50;;
50681;SDS011;36779;52.168;20.878;2023-02-28T14:56:50;9.00;;;4.40;;
50681;SDS011;36779;52.168;20.878;2023-02-28T14:59:39;10.60;;;4.40;;
50681;SDS011;36779;52.168;20.878;2023-02-28T15:02:33;9.10;;;4.20;;
50681;SDS011;36779;52.168;20.878;2023-02-28T15:05:25;11.30;;;5.90;;
50681;SDS011;36779;52.168;20.878;2023-02-28T15:08:17;14.20;;;7.30;;
50681;SDS011;36779;52.168;20.878;2023-02-28T15:11:13;13.00;;;5.20;;
50681;SDS011;36779;52.168;20.878;2023-02-28T15:13:58;11.40;;;5.90;;
50681;SDS011;36779;52.168;20.878;2023-02-28T15:16:49;14.30;;;6.90;;
50681;SDS011;36779;52.168;20.878;2023-02-28T15:20:10;13.60;;;7.30;;
50681;SDS011;36779;52.168;20.878;2023-02-28T15:23:12;14.10;;;6.70;;
50681;SDS011;36779;52.168;20.878;2023-02-28T15:26:03;16.10;;;6.50;;
50681;SDS011;36779;52.168;20.878;2023-02-28T15:28:54;15.60;;;8.00;;
50681;SDS011;36779;52.168;20.878;2023-02-28T15:31:49;14.80;;;7.10;;
50681;SDS011;36779;52.168;20.878;2023-02-28T15:34:45;19.80;;;8.00;;
50681;SDS011;36779;52.168;20.878;2023-02-28T15:37:39;12.90;;;6.20;;
50681;SDS011;36779;52.168;20.878;2023-02-28T15:40:37;16.30;;;7.70;;
50681;SDS011;36779;52.168;20.878;2023-02-28T15:43:38;20.10;;;7.60;;
50681;SDS011;36779;52.168;20.878;2023-02-28T15:46:29;14.70;;;7.80;;
50681;SDS011;36779;52.168;20.878;2023-02-28T15:49:19;16.60;;;8.20;;
50681;SDS011;36779;52.168;20.878;2023-02-28T15:52:13;13.60;;;7.20;;
50681;SDS011;36779;52.168;20.878;2023-02-28T15:55:11;20.50;;;8.70;;
50681;SDS011;36779;52.168;20.878;2023-02-28T15:58:07;18.30;;;7.90;;
50681;SDS011;36779;52.168;20.878;2023-02-28T16:01:05;15.70;;;6.90;;
50681;SDS011;36779;52.168;20.878;2023-02-28T16:04:14;19.30;;;8.80;;
50681;SDS011;36779;52.168;20.878;2023-02-28T16:07:05;20.10;;;9.30;;
50681;SDS011;36779;52.168;20.878;2023-02-28T16:10:01;23.60;;;10.00;;
50681;SDS011;36779;52.168;20.878;2023-02-28T16:12:53;20.20;;;10.00;;
50681;SDS011;36779;52.168;20.878;2023-02-28T16:15:44;26.90;;;11.50;;
50681;SDS011;36779;52.168;20.878;2023-02-28T16:18:39;24.40;;;11.50;;
50681;SDS011;36779;52.168;20.878;2023-02-28T16:21:30;19.50;;;8.90;;
50681;SDS011;36779;52.168;20.878;2023-02-28T16:24:21;16.70;;;7.30;;
50681;SDS011;36779;52.168;20.878;2023-02-28T16:27:14;15.70;;;7.30;;
50681;SDS011;36779;52.168;20.878;2023-02-28T16:30:07;14.50;;;6.20;;
50681;SDS011;36779;52.168;20.878;2023-02-28T16:33:07;16.60;;;5.30;;
50681;SDS011;36779;52.168;20.878;2023-02-28T16:35:58;19.20;;;7.50;;
50681;SDS011;36779;52.168;20.878;2023-02-28T16:38:55;17.80;;;7.30;;
50681;SDS011;36779;52.168;20.878;2023-02-28T16:41:49;20.40;;;7.80;;
50681;SDS011;36779;52.168;20.878;2023-02-28T16:44:42;12.70;;;5.70;;
50681;SDS011;36779;52.168;20.878;2023-02-28T16:47:32;17.70;;;7.10;;
50681;SDS011;36779;52.168;20.878;2023-02-28T16:50:23;19.10;;;8.10;;
50681;SDS011;36779;52.168;20.878;2023-02-28T16:53:18;27.30;;;9.00;;
50681;SDS011;36779;52.168;20.878;2023-02-28T16:56:09;21.10;;;8.00;;
50681;SDS011;36779;52.168;20.878;2023-02-28T16:59:05;15.70;;;6.10;;
50681;SDS011;36779;52.168;20.878;2023-02-28T17:01:54;13.10;;;6.60;;
50681;SDS011;36779;52.168;20.878;2023-02-28T17:04:48;18.40;;;6.40;;
50681;SDS011;36779;52.168;20.878;2023-02-28T17:07:37;14.60;;;6.10;;
50681;SDS011;36779;52.168;20.878;2023-02-28T17:10:26;13.00;;;6.10;;
50681;SDS011;36779;52.168;20.878;2023-02-28T17:13:18;14.80;;;6.80;;
50681;SDS011;36779;52.168;20.878;2023-02-28T17:16:09;19.10;;;7.00;;
50681;SDS011;36779;52.168;20.878;2023-02-28T17:19:11;18.80;;;6.70;;
50681;SDS011;36779;52.168;20.878;2023-02-28T17:22:02;16.80;;;6.70;;
50681;SDS011;36779;52.168;20.878;2023-02-28T17:24:52;21.60;;;7.10;;
50681;SDS011;36779;52.168;20.878;2023-02-28T17:27:45;21.90;;;8.40;;
50681;SDS011;36779;52.168;20.878;2023-02-28T17:30:37;34.90;;;11.80;;
50681;SDS011;36779;52.168;20.878;2023-02-28T17:33:29;30.10;;;10.30;;
50681;SDS011;36779;52.168;20.878;2023-02-28T17:36:20;36.10;;;13.60;;
50681;SDS011;36779;52.168;20.878;2023-02-28T17:39:32;35.00;;;13.00;;
50681;SDS011;36779;52.168;20.878;2023-02-28T17:42:26;49.50;;;14.70;;
50681;SDS011;36779;52.168;20.878;2023-02-28T17:45:22;48.30;;;16.10;;
50681;SDS011;36779;52.168;20.878;2023-02-28T17:48:14;40.30;;;15.90;;
50681;SDS011;36779;52.168;20.878;2023-02-28T17:51:06;51.30;;;18.30;;
50681;SDS011;36779;52.168;20.878;2023-02-28T17:53:57;50.30;;;17.80;;
50681;SDS011;36779;52.168;20.878;2023-02-28T17:56:48;59.20;;;20.80;;
50681;SDS011;36779;52.168;20.878;2023-02-28T17:59:40;58.70;;;20.70;;
50681;SDS011;36779;52.168;20.878;2023-02-28T18:02:31;56.30;;;19.40;;
50681;SDS011;36779;52.168;20.878;2023-02-28T18:05:22;88.50;;;29.30;;
50681;SDS011;36779;52.168;20.878;2023-02-28T18:08:13;68.80;;;24.10;;
50681;SDS011;36779;52.168;20.878;2023-02-28T18:11:04;72.60;;;26.00;;
50681;SDS011;36779;52.168;20.878;2023-02-28T18:13:54;71.10;;;24.90;;
50681;SDS011;36779;52.168;20.878;2023-02-28T18:16:47;58.30;;;20.10;;
50681;SDS011;36779;52.168;20.878;2023-02-28T18:19:37;51.60;;;19.50;;
50681;SDS011;36779;52.168;20.878;2023-02-28T18:22:30;56.10;;;20.70;;
50681;SDS011;36779;52.168;20.878;2023-02-28T18:25:25;56.40;;;21.00;;
50681;SDS011;36779;52.168;20.878;2023-02-28T18:28:16;64.10;;;22.80;;
50681;SDS011;36779;52.168;20.878;2023-02-28T18:31:09;66.70;;;22.10;;
50681;SDS011;36779;52.168;20.878;2023-02-28T18:34:13;69.70;;;23.00;;
50681;SDS011;36779;52.168;20.878;2023-02-28T18:37:04;65.70;;;22.00;;
50681;SDS011;36779;52.168;20.878;2023-02-28T18:40:00;56.00;;;20.20;;
50681;SDS011;36779;52.168;20.878;2023-02-28T18:43:03;66.40;;;22.10;;
50681;SDS011;36779;52.168;20.878;2023-02-28T18:45:54;77.50;;;26.00;;
50681;SDS011;36779;52.168;20.878;2023-02-28T18:48:44;54.20;;;19.80;;
50681;SDS011;36779;52.168;20.878;2023-02-28T18:51:34;62.40;;;20.50;;
50681;SDS011;36779;52.168;20.878;2023-02-28T18:54:24;68.00;;;22.90;;
50681;SDS011;36779;52.168;20.878;2023-02-28T18:57:14;58.80;;;20.60;;
50681;SDS011;36779;52.168;20.878;2023-02-28T19:00:04;67.10;;;22.60;;